Pomfret Center, CT (06259)

12:57 PM EDT on September 04, 2015 (GMT -0400)
Pomfret School | | Change Station
CLOSE
Current Station
Personal Weather Station
Location: Pomfret, CT
Elevation: 577 ft
Nearby Weather Stations

Elev 577 ft 41.89 °N, 71.97 °W | Updated 6 seconds ago

Overcast
Overcast
77.5 °F
Feels Like 79 °F
N
0.0
Wind Variable Wind from WSW
Gusts 3.0 mph

Today
High -- | Low -- °F
--% Chance of Precip.
Yesterday
High -- | Low -- °F
Precip. -- in
6:16 AM 7:16 PM
Waning Gibbous, 58% visible
Pressure 30.14 in
Visibility 10.0 miles
Clouds Few 3200 ft
Mostly Cloudy 6000 ft
Heat Index 79 °F
Dew Point 63 °F
Humidity 61%
Rainfall 0.00 in
Snow Depth Not available.
UV 5 out of 12
Pollen 8.70 out of 12
Air Quality Not available.
Flu Activity Not available.
METAR KIJD 041652Z AUTO 03010KT 10SM FEW032 BKN060 26/14 A3015 RMK AO2 SLP206 T02610139
Pressure 30.14 in
Visibility 10.0 miles
Clouds Few 3200 ft
Mostly Cloudy 6000 ft
Heat Index 79 °F
Dew Point 63 °F
Humidity 61%
Rainfall 0.00 in
Snow Depth Not available.
UV 5 out of 12
Pollen 8.70 out of 12
Air Quality Not available.
Flu Activity Not available.
METAR KIJD 041652Z AUTO 03010KT 10SM FEW032 BKN060 26/14 A3015 RMK AO2 SLP206 T02610139

10-Day Weather Forecast

×

Almanac

Astronomy

Sep. 04, 2015 Rise Set
Actual Time
Civil Twilight
Nautical Twilight
Astronomical Twilight
Moon
Length of Visible Light
Length of Day
Tomorrow will be .
, % of the Moon is Illuminated

Today's Extremes

State Highs State Lows

Community

WunderPhotos

Upload Photos

1,852,226 photos uploaded!

WunderBlogs® & News

Nearby

Air Quality

  Air Quality AQ Index Pollutant
Not available.

Snow Depth

Station Depth Elevation

Earthquake Activity

City Distance Mag. Time & Date
Minimum magnitude displayed is 2.5.

Coastal Water Temperatures

Place Temperature

Stations

Nearby Weather Stations

Station Location Temp. Windchill Dew Point Humidity Wind Precip. Elev Updated Type